DLH7LY ESSA-EDDF
Flight info
| Callsign | DLH7LY |
|---|---|
| Flight time | N/A |
| Altitude | 38000 |
| Route | NOSLI N850 ABAMA DCT SONAL DCT POVEL DCT RIMET T157 KERAX KERAX5A |
| Aircraft | A320/M-SDE3FGHIRWY/LB1 |
Departure
| Time | 2026-05-06 14:34 |
|---|---|
| Airport | Stockholm-Arlanda Airport (ESSA) |
Arrival
| Time | N/A |
|---|---|
| Airport | Frankfurt Main Airport (EDDF) |
| Time | Latitude | Longitude | Altitude | Speed | Heading |
|---|---|---|---|---|---|
| 2026-05-06 13:51 | 59.65388 | 17.93038 | 138 ft | 0 kts | 191° |
| 2026-05-06 14:26 | 59.65392 | 17.93039 | 137 ft | 3 kts | 192° |
| 2026-05-06 14:27 | 59.65416 | 17.93057 | 137 ft | 4 kts | 221° |
| 2026-05-06 14:27 | 59.65429 | 17.93094 | 137 ft | 2 kts | 254° |
| 2026-05-06 14:27 | 59.65430 | 17.93096 | 137 ft | 1 kts | 254° |
| 2026-05-06 14:30 | 59.65426 | 17.93070 | 137 ft | 6 kts | 254° |
| 2026-05-06 14:30 | 59.65425 | 17.92978 | 137 ft | 7 kts | 300° |
| 2026-05-06 14:31 | 59.65461 | 17.92920 | 138 ft | 9 kts | 307° |
| 2026-05-06 14:31 | 59.65450 | 17.92783 | 138 ft | 12 kts | 244° |
| 2026-05-06 14:31 | 59.65436 | 17.92628 | 138 ft | 13 kts | 312° |
| 2026-05-06 14:31 | 59.65512 | 17.92544 | 138 ft | 12 kts | 335° |
| 2026-05-06 14:32 | 59.65603 | 17.92494 | 138 ft | 13 kts | 345° |
| 2026-05-06 14:32 | 59.65692 | 17.92448 | 138 ft | 13 kts | 345° |
| 2026-05-06 14:32 | 59.65788 | 17.92432 | 138 ft | 18 kts | 9° |
| 2026-05-06 14:32 | 59.65886 | 17.92448 | 138 ft | 11 kts | 339° |
| 2026-05-06 14:33 | 59.65915 | 17.92334 | 139 ft | 11 kts | 279° |
| 2026-05-06 14:33 | 59.65925 | 17.92213 | 143 ft | 6 kts | 279° |
| 2026-05-06 14:33 | 59.65928 | 17.92180 | 145 ft | 2 kts | 279° |
| 2026-05-06 14:33 | 59.65918 | 17.92114 | 145 ft | 5 kts | 218° |
| 2026-05-06 14:34 | 59.65873 | 17.92100 | 145 ft | 14 kts | 190° |
| 2026-05-06 14:34 | 59.65489 | 17.91958 | 145 ft | 101 kts | 190° |
| 2026-05-06 14:34 | 59.64535 | 17.91605 | 179 ft | 169 kts | 192° |
| 2026-05-06 14:34 | 59.63358 | 17.91194 | 1089 ft | 172 kts | 191° |
| 2026-05-06 14:35 | 59.62201 | 17.90770 | 2040 ft | 168 kts | 191° |
| 2026-05-06 14:35 | 59.61127 | 17.89680 | 2472 ft | 188 kts | 230° |
| 2026-05-06 14:35 | 59.60393 | 17.87326 | 2864 ft | 213 kts | 239° |
| 2026-05-06 14:35 | 59.59629 | 17.84753 | 3605 ft | 221 kts | 239° |
| 2026-05-06 14:36 | 59.58836 | 17.82132 | 4474 ft | 225 kts | 239° |
| 2026-05-06 14:36 | 59.58039 | 17.79312 | 4990 ft | 246 kts | 242° |
| 2026-05-06 14:36 | 59.57213 | 17.76261 | 5707 ft | 258 kts | 237° |
| 2026-05-06 14:36 | 59.56029 | 17.73569 | 6620 ft | 262 kts | 220° |
| 2026-05-06 14:37 | 59.54468 | 17.71680 | 7528 ft | 267 kts | 208° |
| 2026-05-06 14:37 | 59.52795 | 17.70019 | 8430 ft | 271 kts | 208° |
| 2026-05-06 14:37 | 59.51095 | 17.68359 | 9339 ft | 275 kts | 209° |
| 2026-05-06 14:37 | 59.49371 | 17.66680 | 10200 ft | 280 kts | 210° |
| 2026-05-06 14:38 | 59.47556 | 17.64900 | 10550 ft | 303 kts | 210° |
| 2026-05-06 14:38 | 59.45602 | 17.62974 | 10831 ft | 325 kts | 210° |
| 2026-05-06 14:38 | 59.43538 | 17.60940 | 11414 ft | 335 kts | 210° |
| 2026-05-06 14:38 | 59.41447 | 17.58889 | 12164 ft | 339 kts | 210° |
| 2026-05-06 14:39 | 59.39321 | 17.56815 | 12951 ft | 342 kts | 210° |
| 2026-05-06 14:39 | 59.37174 | 17.54726 | 13732 ft | 346 kts | 210° |
| 2026-05-06 14:39 | 59.35012 | 17.52619 | 14433 ft | 348 kts | 210° |
| 2026-05-06 14:39 | 59.32828 | 17.50491 | 15177 ft | 350 kts | 210° |
| 2026-05-06 14:40 | 59.30651 | 17.48369 | 15920 ft | 351 kts | 210° |
| 2026-05-06 14:40 | 59.28465 | 17.46240 | 16615 ft | 352 kts | 210° |
| 2026-05-06 14:40 | 59.26269 | 17.44103 | 17308 ft | 354 kts | 210° |
| 2026-05-06 14:40 | 59.24051 | 17.41949 | 18000 ft | 356 kts | 210° |
| 2026-05-06 14:41 | 59.21829 | 17.39799 | 18628 ft | 358 kts | 210° |
| 2026-05-06 14:41 | 59.19589 | 17.37643 | 19219 ft | 359 kts | 210° |
| 2026-05-06 14:41 | 59.17342 | 17.35484 | 19814 ft | 360 kts | 211° |
| 2026-05-06 14:41 | 59.15090 | 17.33317 | 20412 ft | 361 kts | 211° |
| 2026-05-06 14:42 | 59.12832 | 17.31143 | 20989 ft | 363 kts | 211° |
| 2026-05-06 14:42 | 59.10566 | 17.28964 | 21562 ft | 364 kts | 211° |
| 2026-05-06 14:42 | 59.08298 | 17.26767 | 22126 ft | 364 kts | 213° |
| 2026-05-06 14:42 | 59.06873 | 17.25058 | 22478 ft | 362 kts | 220° |
| 2026-05-06 14:43 | 59.04915 | 17.21991 | 23030 ft | 361 kts | 224° |
| 2026-05-06 14:43 | 59.02988 | 17.18864 | 23549 ft | 362 kts | 224° |
| 2026-05-06 14:43 | 59.01048 | 17.15722 | 23962 ft | 365 kts | 223° |
| 2026-05-06 14:43 | 58.99070 | 17.12531 | 24386 ft | 367 kts | 223° |
| 2026-05-06 14:44 | 58.97128 | 17.09407 | 24806 ft | 368 kts | 223° |
| 2026-05-06 14:44 | 58.95153 | 17.06241 | 25229 ft | 369 kts | 223° |
| 2026-05-06 14:44 | 58.93170 | 17.03068 | 25660 ft | 370 kts | 223° |
| 2026-05-06 14:45 | 58.89181 | 16.96696 | 26485 ft | 373 kts | 222° |
| 2026-05-06 14:45 | 58.87183 | 16.93503 | 26899 ft | 374 kts | 222° |
| 2026-05-06 14:45 | 58.85144 | 16.90245 | 27316 ft | 375 kts | 221° |
| 2026-05-06 14:45 | 58.83129 | 16.87032 | 27717 ft | 376 kts | 221° |
| 2026-05-06 14:46 | 58.81102 | 16.83809 | 28093 ft | 378 kts | 221° |
| 2026-05-06 14:46 | 58.79070 | 16.80586 | 28469 ft | 379 kts | 221° |
| 2026-05-06 14:46 | 58.77026 | 16.77347 | 28736 ft | 382 kts | 220° |
| 2026-05-06 14:46 | 58.74963 | 16.74083 | 29018 ft | 385 kts | 220° |
| 2026-05-06 14:47 | 58.72884 | 16.70800 | 29344 ft | 387 kts | 220° |
| 2026-05-06 14:47 | 58.70801 | 16.67523 | 29673 ft | 388 kts | 220° |
| 2026-05-06 14:47 | 58.68702 | 16.64231 | 30025 ft | 390 kts | 220° |
| 2026-05-06 14:47 | 58.66595 | 16.60929 | 30332 ft | 390 kts | 220° |
| 2026-05-06 14:48 | 58.64499 | 16.57651 | 30721 ft | 388 kts | 220° |
| 2026-05-06 14:48 | 58.62409 | 16.54378 | 31106 ft | 387 kts | 220° |
| 2026-05-06 14:48 | 58.60322 | 16.51111 | 31475 ft | 386 kts | 220° |
| 2026-05-06 14:48 | 58.58245 | 16.47862 | 31875 ft | 385 kts | 220° |
| 2026-05-06 14:49 | 58.56177 | 16.44632 | 32302 ft | 383 kts | 220° |
| 2026-05-06 14:49 | 58.54111 | 16.41416 | 32654 ft | 382 kts | 220° |
| 2026-05-06 14:49 | 58.52043 | 16.38199 | 32907 ft | 384 kts | 220° |
| 2026-05-06 14:49 | 58.49963 | 16.34970 | 33197 ft | 385 kts | 220° |
| 2026-05-06 14:50 | 58.47876 | 16.31744 | 33528 ft | 385 kts | 220° |
| 2026-05-06 14:50 | 58.45798 | 16.28534 | 33890 ft | 384 kts | 220° |
| 2026-05-06 14:50 | 58.43718 | 16.25324 | 34189 ft | 384 kts | 220° |
| 2026-05-06 14:50 | 58.41646 | 16.22131 | 34457 ft | 384 kts | 220° |
| 2026-05-06 14:51 | 58.39559 | 16.18920 | 34705 ft | 385 kts | 220° |
| 2026-05-06 14:51 | 58.37469 | 16.15705 | 34936 ft | 387 kts | 220° |
| 2026-05-06 14:51 | 58.35375 | 16.12489 | 35147 ft | 388 kts | 220° |
| 2026-05-06 14:51 | 58.33267 | 16.09259 | 35370 ft | 389 kts | 220° |
| 2026-05-06 14:52 | 58.31154 | 16.06023 | 35584 ft | 390 kts | 220° |
| 2026-05-06 14:52 | 58.29040 | 16.02789 | 35726 ft | 392 kts | 220° |
| 2026-05-06 14:52 | 58.26900 | 15.99523 | 35882 ft | 394 kts | 220° |
| 2026-05-06 14:52 | 58.24755 | 15.96258 | 36072 ft | 395 kts | 220° |
| 2026-05-06 14:53 | 58.22605 | 15.92994 | 36275 ft | 397 kts | 220° |
| 2026-05-06 14:53 | 58.20469 | 15.89760 | 36478 ft | 397 kts | 220° |
| 2026-05-06 14:53 | 58.18281 | 15.86449 | 36686 ft | 398 kts | 220° |
| 2026-05-06 14:53 | 58.16145 | 15.83214 | 36878 ft | 399 kts | 220° |
| 2026-05-06 14:54 | 58.13970 | 15.79926 | 37074 ft | 400 kts | 220° |
| 2026-05-06 14:54 | 58.11772 | 15.76612 | 37274 ft | 400 kts | 220° |
| 2026-05-06 14:54 | 58.09585 | 15.73319 | 37461 ft | 401 kts | 220° |
| 2026-05-06 14:54 | 58.07399 | 15.70034 | 37660 ft | 402 kts | 220° |
| 2026-05-06 14:55 | 58.05208 | 15.66750 | 37793 ft | 403 kts | 220° |
| 2026-05-06 14:55 | 58.03004 | 15.63460 | 37936 ft | 404 kts | 220° |
| 2026-05-06 14:55 | 58.00796 | 15.60166 | 37963 ft | 406 kts | 220° |
| 2026-05-06 14:56 | 57.96077 | 15.54422 | 37950 ft | 409 kts | 210° |
| 2026-05-06 14:56 | 57.91028 | 15.49477 | 37950 ft | 409 kts | 210° |
| 2026-05-06 14:57 | 57.85971 | 15.44528 | 37947 ft | 409 kts | 210° |
| 2026-05-06 14:57 | 57.80915 | 15.39598 | 37947 ft | 409 kts | 210° |
| 2026-05-06 14:58 | 57.75855 | 15.34682 | 37944 ft | 409 kts | 210° |
| 2026-05-06 14:58 | 57.70797 | 15.29778 | 37945 ft | 409 kts | 210° |
| 2026-05-06 14:59 | 57.65737 | 15.24885 | 37976 ft | 409 kts | 210° |
| 2026-05-06 14:59 | 57.60675 | 15.20002 | 37967 ft | 409 kts | 210° |
| 2026-05-06 15:00 | 57.55616 | 15.15136 | 37927 ft | 409 kts | 210° |
| 2026-05-06 15:00 | 57.50548 | 15.10302 | 37929 ft | 409 kts | 210° |
| 2026-05-06 15:01 | 57.45471 | 15.05473 | 37932 ft | 410 kts | 210° |
| 2026-05-06 15:01 | 57.40420 | 15.00670 | 37931 ft | 410 kts | 210° |
| 2026-05-06 15:02 | 57.35337 | 14.95855 | 37939 ft | 411 kts | 210° |
| 2026-05-06 15:02 | 57.30245 | 14.91036 | 37902 ft | 411 kts | 210° |
| 2026-05-06 15:03 | 57.25147 | 14.86236 | 37909 ft | 412 kts | 209° |
| 2026-05-06 15:03 | 57.20033 | 14.81431 | 37916 ft | 412 kts | 209° |
| 2026-05-06 15:04 | 57.14912 | 14.76638 | 37922 ft | 413 kts | 209° |
| 2026-05-06 15:04 | 57.09791 | 14.71856 | 37928 ft | 413 kts | 209° |
| 2026-05-06 15:05 | 57.04666 | 14.67076 | 37918 ft | 413 kts | 209° |
| 2026-05-06 15:05 | 56.99538 | 14.62315 | 37922 ft | 414 kts | 209° |
| 2026-05-06 15:06 | 56.94381 | 14.57558 | 37942 ft | 414 kts | 209° |
| 2026-05-06 15:06 | 56.89225 | 14.52815 | 37945 ft | 415 kts | 209° |
| 2026-05-06 15:07 | 56.84076 | 14.48088 | 37949 ft | 415 kts | 209° |
| 2026-05-06 15:07 | 56.78915 | 14.43363 | 37929 ft | 415 kts | 208° |
| 2026-05-06 15:08 | 56.73735 | 14.38627 | 37940 ft | 416 kts | 208° |
| 2026-05-06 15:08 | 56.68551 | 14.33899 | 37943 ft | 417 kts | 208° |
| 2026-05-06 15:09 | 56.63393 | 14.29227 | 37939 ft | 417 kts | 208° |
| 2026-05-06 15:09 | 56.58206 | 14.24536 | 37944 ft | 417 kts | 208° |
| 2026-05-06 15:10 | 56.53012 | 14.19844 | 37931 ft | 417 kts | 208° |
| 2026-05-06 15:10 | 56.47795 | 14.15160 | 37939 ft | 418 kts | 208° |
| 2026-05-06 15:11 | 56.42593 | 14.10498 | 37945 ft | 418 kts | 208° |
| 2026-05-06 15:11 | 56.37380 | 14.05837 | 37947 ft | 418 kts | 208° |
| 2026-05-06 15:12 | 56.32158 | 14.01187 | 37956 ft | 418 kts | 208° |
| 2026-05-06 15:12 | 56.26934 | 13.96550 | 37942 ft | 418 kts | 208° |
| 2026-05-06 15:13 | 56.21714 | 13.91928 | 37950 ft | 419 kts | 208° |
| 2026-05-06 15:13 | 56.16486 | 13.87300 | 37953 ft | 419 kts | 208° |
| 2026-05-06 15:14 | 56.11252 | 13.82693 | 37956 ft | 419 kts | 208° |
| 2026-05-06 15:14 | 56.06004 | 13.78105 | 37941 ft | 420 kts | 208° |
| 2026-05-06 15:15 | 56.00752 | 13.73524 | 37957 ft | 420 kts | 208° |
| 2026-05-06 15:15 | 55.95503 | 13.68943 | 37979 ft | 420 kts | 208° |
| 2026-05-06 15:16 | 55.90244 | 13.64362 | 37962 ft | 421 kts | 208° |
| 2026-05-06 15:16 | 55.84979 | 13.59792 | 37970 ft | 421 kts | 208° |
| 2026-05-06 15:17 | 55.79718 | 13.55236 | 37953 ft | 421 kts | 208° |
| 2026-05-06 15:17 | 55.74437 | 13.50690 | 37957 ft | 422 kts | 207° |
| 2026-05-06 15:18 | 55.69154 | 13.46157 | 37957 ft | 422 kts | 207° |
| 2026-05-06 15:18 | 55.63868 | 13.41631 | 37957 ft | 422 kts | 207° |
| 2026-05-06 15:19 | 55.58589 | 13.37119 | 37957 ft | 422 kts | 207° |
| 2026-05-06 15:19 | 55.53302 | 13.32611 | 37936 ft | 422 kts | 207° |
| 2026-05-06 15:20 | 55.48043 | 13.28151 | 37945 ft | 422 kts | 207° |
| 2026-05-06 15:20 | 55.43602 | 13.24402 | 37952 ft | 423 kts | 207° |
| 2026-05-06 15:21 | 55.38294 | 13.19923 | 37951 ft | 423 kts | 207° |
| 2026-05-06 15:21 | 55.32120 | 13.14727 | 37953 ft | 423 kts | 207° |
| 2026-05-06 15:22 | 55.27659 | 13.10992 | 37957 ft | 424 kts | 207° |
| 2026-05-06 15:22 | 55.22331 | 13.06544 | 37961 ft | 424 kts | 207° |
| 2026-05-06 15:23 | 55.17026 | 13.02111 | 37959 ft | 424 kts | 207° |
| 2026-05-06 15:23 | 55.11701 | 12.97677 | 37961 ft | 424 kts | 207° |
| 2026-05-06 15:24 | 55.06363 | 12.93254 | 37947 ft | 424 kts | 207° |
| 2026-05-06 15:24 | 55.01009 | 12.88823 | 37955 ft | 424 kts | 207° |
| 2026-05-06 15:25 | 54.95701 | 12.84453 | 37954 ft | 424 kts | 207° |
| 2026-05-06 15:25 | 54.90398 | 12.80099 | 37955 ft | 424 kts | 207° |
| 2026-05-06 15:26 | 54.85053 | 12.75776 | 37934 ft | 423 kts | 206° |
| 2026-05-06 15:26 | 54.79763 | 12.71774 | 37923 ft | 397 kts | 205° |
| 2026-05-06 15:27 | 54.74716 | 12.68027 | 37929 ft | 400 kts | 205° |
| 2026-05-06 15:27 | 54.69657 | 12.64273 | 37921 ft | 391 kts | 205° |
| 2026-05-06 15:28 | 54.64590 | 12.60449 | 37924 ft | 400 kts | 206° |
| 2026-05-06 15:28 | 54.59428 | 12.56506 | 37923 ft | 411 kts | 206° |
| 2026-05-06 15:29 | 54.54159 | 12.52536 | 37929 ft | 421 kts | 205° |
| 2026-05-06 15:29 | 54.48746 | 12.48504 | 37921 ft | 425 kts | 205° |
| 2026-05-06 15:30 | 54.43300 | 12.44466 | 37921 ft | 426 kts | 205° |
| 2026-05-06 15:30 | 54.37860 | 12.40422 | 37913 ft | 426 kts | 205° |
| 2026-05-06 15:31 | 54.32416 | 12.36390 | 37901 ft | 426 kts | 205° |
| 2026-05-06 15:31 | 54.26959 | 12.32360 | 37898 ft | 427 kts | 205° |
| 2026-05-06 15:32 | 54.18799 | 12.26350 | 37918 ft | 427 kts | 205° |
| 2026-05-06 15:32 | 54.13324 | 12.22326 | 37913 ft | 427 kts | 205° |
| 2026-05-06 15:33 | 54.07859 | 12.18329 | 37891 ft | 427 kts | 205° |
| 2026-05-06 15:33 | 54.02398 | 12.14342 | 37888 ft | 427 kts | 205° |
| 2026-05-06 15:34 | 53.96924 | 12.10360 | 37882 ft | 428 kts | 205° |
| 2026-05-06 15:34 | 53.91454 | 12.06396 | 37883 ft | 428 kts | 205° |
| 2026-05-06 15:35 | 53.85974 | 12.02428 | 37879 ft | 428 kts | 205° |
| 2026-05-06 15:35 | 53.80492 | 11.98476 | 37881 ft | 428 kts | 205° |
| 2026-05-06 15:36 | 53.75007 | 11.94542 | 37886 ft | 428 kts | 205° |
| 2026-05-06 15:36 | 53.69526 | 11.90616 | 37882 ft | 428 kts | 205° |
| 2026-05-06 15:37 | 53.64032 | 11.86677 | 37874 ft | 428 kts | 205° |
| 2026-05-06 15:37 | 53.58547 | 11.82771 | 37890 ft | 428 kts | 204° |
| 2026-05-06 15:38 | 53.53064 | 11.78882 | 37886 ft | 427 kts | 204° |
| 2026-05-06 15:38 | 53.47581 | 11.74992 | 37885 ft | 427 kts | 204° |
| 2026-05-06 15:39 | 53.42106 | 11.71113 | 37880 ft | 427 kts | 204° |
| 2026-05-06 15:39 | 53.36627 | 11.67258 | 37863 ft | 427 kts | 204° |
| 2026-05-06 15:40 | 53.31143 | 11.63402 | 37870 ft | 427 kts | 204° |
| 2026-05-06 15:40 | 53.25659 | 11.59558 | 37870 ft | 427 kts | 204° |
| 2026-05-06 15:41 | 53.20179 | 11.55737 | 37865 ft | 427 kts | 204° |
| 2026-05-06 15:41 | 53.14739 | 11.51937 | 37853 ft | 426 kts | 204° |
| 2026-05-06 15:42 | 53.09232 | 11.48106 | 37857 ft | 427 kts | 204° |
| 2026-05-06 15:42 | 53.03780 | 11.44333 | 37857 ft | 427 kts | 204° |
| 2026-05-06 15:43 | 52.98294 | 11.40553 | 37852 ft | 427 kts | 204° |
| 2026-05-06 15:43 | 52.92842 | 11.36802 | 37852 ft | 427 kts | 204° |
| 2026-05-06 15:44 | 52.87381 | 11.33044 | 37171 ft | 418 kts | 204° |
| 2026-05-06 15:44 | 52.84650 | 11.31109 | 34980 ft | 431 kts | 205° |
| 2026-05-06 15:44 | 52.81929 | 11.29083 | 33359 ft | 425 kts | 206° |
| 2026-05-06 15:45 | 52.79263 | 11.27011 | 31338 ft | 422 kts | 206° |
| 2026-05-06 15:45 | 52.76618 | 11.24926 | 29322 ft | 420 kts | 206° |
| 2026-05-06 15:45 | 52.74009 | 11.22813 | 27159 ft | 416 kts | 209° |
| 2026-05-06 15:45 | 52.71732 | 11.19972 | 25316 ft | 408 kts | 226° |
| 2026-05-06 15:46 | 52.70141 | 11.16171 | 23484 ft | 402 kts | 244° |
| 2026-05-06 15:46 | 52.69303 | 11.11817 | 20537 ft | 411 kts | 261° |
| 2026-05-06 15:46 | 52.69300 | 11.07069 | 18112 ft | 414 kts | 271° |
| 2026-05-06 15:46 | 52.69404 | 11.02355 | 15543 ft | 409 kts | 268° |
| 2026-05-06 15:47 | 52.69330 | 10.97726 | 13463 ft | 398 kts | 265° |
| 2026-05-06 15:47 | 52.69170 | 10.93271 | 11499 ft | 382 kts | 264° |
| 2026-05-06 15:47 | 52.68939 | 10.89002 | 9792 ft | 365 kts | 262° |
| 2026-05-06 15:47 | 52.68475 | 10.85052 | 8592 ft | 336 kts | 250° |
| 2026-05-06 15:48 | 52.67699 | 10.81558 | 7936 ft | 313 kts | 249° |
| 2026-05-06 15:48 | 52.66885 | 10.78403 | 7815 ft | 295 kts | 241° |
| 2026-05-06 15:48 | 52.65904 | 10.75423 | 7817 ft | 284 kts | 239° |
| 2026-05-06 15:48 | 52.64981 | 10.72665 | 7807 ft | 271 kts | 239° |
| 2026-05-06 15:49 | 52.64078 | 10.69972 | 7339 ft | 268 kts | 239° |
| 2026-05-06 15:49 | 52.63184 | 10.67292 | 6944 ft | 266 kts | 239° |
| 2026-05-06 15:49 | 52.62300 | 10.64637 | 6536 ft | 266 kts | 239° |
| 2026-05-06 15:49 | 52.61413 | 10.61957 | 6102 ft | 265 kts | 239° |
| 2026-05-06 15:50 | 52.60540 | 10.59294 | 5644 ft | 266 kts | 239° |
| 2026-05-06 15:50 | 52.59653 | 10.56549 | 5144 ft | 269 kts | 239° |
| 2026-05-06 15:50 | 52.58771 | 10.53822 | 4845 ft | 272 kts | 240° |
| 2026-05-06 15:50 | 52.57857 | 10.51067 | 4820 ft | 276 kts | 239° |
| 2026-05-06 15:51 | 52.56933 | 10.48305 | 4821 ft | 275 kts | 239° |
| 2026-05-06 15:51 | 52.56007 | 10.45548 | 4822 ft | 276 kts | 239° |
| 2026-05-06 15:51 | 52.55084 | 10.42787 | 4824 ft | 276 kts | 239° |
| 2026-05-06 15:51 | 52.54161 | 10.40022 | 4827 ft | 273 kts | 239° |
| 2026-05-06 15:52 | 52.53250 | 10.37308 | 4828 ft | 270 kts | 239° |
| 2026-05-06 15:52 | 52.52418 | 10.34599 | 4829 ft | 270 kts | 244° |